20 лет Октября

Карта отелей и гостиниц, располагающихся рядом с аэропортом 20 лет Октября :

20 лет Октября Томская область 59° 46' 9.3" N, 78° 50' 6.36" E
20 лет Октября Томская область 59° 46' 9.3" N, 78° 50' 6.36" E
Код аэродрома ИКАО
HB6D
Код аэродрома RU
ХБ6Д
Координаты
N59.76925° E078.83510°
Превышение над уровнем моря
85
Основная полоса
Курс магнитный
Длина основной ВПП
Ширина основной ВПП
Покрытие основной ВПП
Освещение ВПП
Тип: 
Вертодром
Класс аэродрома: 
Принадлежность: 
ГА
Статус: 
Действующий
Сайт: 
E-mail аэродрома: 
Страна: 
Россия
Регион: 
Томская область
Город: 
Дополнительная информация: 


Найти трансфер

С помощью этой формы Вы можете найти трансфер из аэропорта 20 лет Октября в город, аэропорт или вокзал:

Погода в аэропортах:

Авиационная погода в аэропорту Имени Германа Титова

Регион: 
Погода METAR: 
UNBB 291030Z 31005MPS 9999 -RA BKN022 13/12 Q1015 R24/190058 NOSIG RMK QFE739
Время наблюдения
2022-05-29T10:30:00Z
Температура C
13.0
Точка росы
12.0
Направление ветра
310
Скорость ветра (узлы)
10
Метео видимость
6.21
Облачность
BKN
Нижняя граница облачности (футы)
2200
Явления погоды
-RA
Условия полета
MVFR
Аэропорт подробнее: 
BKN – значительная (рассеянная, разорванная) облачность;
-RA - слабый дождь;

Авиационная погода в Бухте Провидения

Погода METAR: 
UHMD 270400Z 18005MPS 6000 BCFG SCT006 02/00 Q1016 RMK QBB200 MT OBSC QFE761/1015
Время наблюдения
2022-05-27T04:00:00Z
Температура C
2.0
Точка росы
0.0
Направление ветра
180
Скорость ветра (узлы)
10
Метео видимость
3.73
Облачность
SCT
Нижняя граница облачности (футы)
600
Явления погоды
BCFG
Условия полета
MVFR
Аэропорт подробнее: 
SCT – разбросанная отдельная облачность;
FG – туман (небо не видно, температура воздуха выше нуля или ноль);

Авиационная погода в Миккели

Регион: 
Погода METAR: 
EFMI 291020Z AUTO 19006KT 160V230 9999 -SHRA //////CB 13/10 Q1004
Время наблюдения
2022-05-29T10:20:00Z
Температура C
13.0
Точка росы
10.0
Направление ветра
190
Скорость ветра (узлы)
6
Метео видимость
6.21
Облачность
Нижняя граница облачности (футы)
Явления погоды
-SHRA
Условия полета
-SHRA - слабый ливневой дождь;

Авиационная погода в аэропорту Имени Алексея Леонова

Регион: 
Погода METAR: 
UNEE 291030Z 29002MPS 7000 -RA BKN049 14/12 Q1011 R23/290155 NOSIG RMK QFE735
Время наблюдения
2022-05-29T10:30:00Z
Температура C
14.0
Точка росы
12.0
Направление ветра
290
Скорость ветра (узлы)
4
Метео видимость
4.35
Облачность
BKN
Нижняя граница облачности (футы)
4900
Явления погоды
-RA
Условия полета
MVFR
Аэропорт подробнее: 
BKN – значительная (рассеянная, разорванная) облачность;
-RA - слабый дождь;